Time;durP1;ratioP1;P1;durP2;ratioP2;P2;SDS_P1;SDS_P2;PMS_P1;PMS_P2;Temp;Humidity;BMP_temperature;BMP_pressure;BME280_temperature;BME280_humidity;BME280_pressure;Samples;Min_cycle;Max_cycle;Signal;HPM_P1;HPM_P2
2022/09/01 00:00:51;;;;;;;;;19.67;14.67;;;;;22.82;51.51;101142.56;5017864;28;45515;-66
2022/09/01 00:03:18;;;;;;;;;15.33;14.33;;;;;22.88;51.58;101158.00;5017748;28;46237;-65
2022/09/01 00:05:45;;;;;;;;;14.00;14.00;;;;;22.86;51.67;101147.38;5018100;28;45321;-65
2022/09/01 00:08:11;;;;;;;;;14.67;13.67;;;;;22.90;52.09;101155.91;5017926;28;45322;-65
2022/09/01 00:10:36;;;;;;;;;12.67;12.67;;;;;22.76;51.90;101139.66;5018149;28;45282;-67
2022/09/01 00:13:05;;;;;;;;;14.00;14.00;;;;;22.71;52.11;101144.88;5025390;28;47584;-67
2022/09/01 00:15:31;;;;;;;;;13.67;13.33;;;;;22.72;52.31;101141.13;5020059;28;46055;-67
2022/09/01 00:17:57;;;;;;;;;16.33;15.33;;;;;22.71;52.49;101150.31;5037692;28;45386;-65
2022/09/01 00:20:22;;;;;;;;;16.00;15.33;;;;;22.68;52.70;101145.31;5037858;28;45292;-66
2022/09/01 00:22:47;;;;;;;;;16.33;15.00;;;;;22.72;52.34;101151.13;5037388;28;48832;-65
2022/09/01 00:25:13;;;;;;;;;13.00;13.00;;;;;22.61;52.48;101138.25;5037363;28;45276;-65
2022/09/01 00:27:38;;;;;;;;;13.67;13.00;;;;;22.70;52.41;101126.97;5037625;28;45323;-64
2022/09/01 00:30:04;;;;;;;;;12.33;12.33;;;;;22.68;52.71;101122.81;5036697;28;45367;-64
2022/09/01 00:32:29;;;;;;;;;16.67;15.33;;;;;22.68;52.75;101137.19;5037418;28;46730;-65
2022/09/01 00:34:55;;;;;;;;;16.67;15.67;;;;;22.66;52.62;101136.56;5037140;28;45366;-64
2022/09/01 00:37:20;;;;;;;;;12.33;11.67;;;;;22.65;52.67;101132.19;5023561;28;45400;-65
2022/09/01 00:39:46;;;;;;;;;14.33;13.67;;;;;22.64;52.52;101121.56;5035145;28;45356;-66
2022/09/01 00:42:11;;;;;;;;;13.33;12.00;;;;;22.59;52.69;101114.06;5036539;28;61486;-65
2022/09/01 00:44:37;;;;;;;;;16.00;14.33;;;;;22.59;53.09;101132.19;5037253;28;45217;-64
2022/09/01 00:47:05;;;;;;;;;13.00;12.67;;;;;21.98;53.38;101049.41;5037105;28;45316;-65
2022/09/01 00:49:35;;;;;;;;;15.00;15.00;;;;;22.49;53.28;101127.25;5036335;28;45401;-65
2022/09/01 00:52:12;;;;;;;;;15.67;15.00;;;;;22.46;53.58;101135.81;5036201;28;45790;-65
2022/09/01 00:54:42;;;;;;;;;17.67;14.33;;;;;22.39;53.76;101118.72;5034424;28;45362;-65
2022/09/01 00:57:09;;;;;;;;;14.00;12.33;;;;;22.40;53.77;101129.34;5035045;28;45331;-64
2022/09/01 00:59:39;;;;;;;;;15.67;15.00;;;;;22.30;54.34;101128.13;5036010;28;45511;-65
2022/09/01 01:02:04;;;;;;;;;16.67;15.00;;;;;22.25;54.29;101138.78;5029466;28;46498;-65
2022/09/01 01:04:30;;;;;;;;;12.67;12.67;;;;;22.23;54.68;101130.03;5016824;28;45332;-66
2022/09/01 01:07:01;;;;;;;;;13.67;13.67;;;;;22.07;54.77;101102.34;5017154;28;45493;-64
2022/09/01 01:09:32;;;;;;;;;15.00;12.33;;;;;22.14;54.66;101115.84;5017388;28;45372;-64
2022/09/01 01:11:59;;;;;;;;;12.67;12.33;;;;;21.82;54.77;101063.38;5016698;28;46869;-65
2022/09/01 01:14:30;;;;;;;;;14.00;13.00;;;;;22.11;54.70;101124.41;5016859;28;45370;-65
2022/09/01 01:16:57;;;;;;;;;17.00;16.00;;;;;21.97;55.04;101093.75;5017434;28;45458;-65
2022/09/01 01:25:21;;;;;;;;;20.33;16.33;;;;;22.07;55.11;101118.59;5035656;28;45423;-64
2022/09/01 01:27:47;;;;;;;;;18.67;14.33;;;;;21.82;54.90;101074.19;5036300;28;45424;-64
2022/09/01 01:30:16;;;;;;;;;15.67;15.33;;;;;21.96;55.27;101096.69;5035424;28;45662;-65
2022/09/01 01:32:44;;;;;;;;;14.00;14.00;;;;;21.94;55.20;101096.91;5036114;28;46758;-65
2022/09/01 01:35:13;;;;;;;;;11.33;9.33;;;;;22.11;54.82;101127.94;5036297;28;45547;-65
2022/09/01 01:37:47;;;;;;;;;15.67;15.67;;;;;22.14;55.44;101116.69;5036260;28;45432;-65
2022/09/01 01:40:15;;;;;;;;;13.33;12.67;;;;;22.14;54.65;101122.09;5036434;28;45597;-65
2022/09/01 01:42:44;;;;;;;;;17.33;13.33;;;;;22.14;55.25;101124.81;5036071;28;47395;-65
2022/09/01 01:45:15;;;;;;;;;16.67;16.00;;;;;22.10;55.09;101120.88;5035548;28;45498;-65
2022/09/01 01:47:42;;;;;;;;;13.67;12.67;;;;;22.12;55.02;101124.19;5036357;28;45465;-64
2022/09/01 01:50:09;;;;;;;;;15.33;14.67;;;;;22.06;55.15;101110.69;5036176;28;45226;-65
2022/09/01 01:52:35;;;;;;;;;18.00;14.67;;;;;22.13;55.07;101122.31;5036169;28;46679;-65
2022/09/01 01:55:01;;;;;;;;;17.00;16.00;;;;;22.13;55.03;101123.16;5035967;28;45208;-64
2022/09/01 01:57:30;;;;;;;;;15.67;15.33;;;;;22.18;55.20;101122.50;5036027;28;45354;-64
2022/09/01 01:59:56;;;;;;;;;16.00;15.00;;;;;22.04;55.14;101107.31;5036091;28;45467;-65
2022/09/01 02:02:22;;;;;;;;;10.67;10.67;;;;;22.12;55.44;101126.06;5034506;28;48440;-65
2022/09/01 02:04:47;;;;;;;;;14.00;14.00;;;;;22.07;55.39;101115.03;5035888;28;45284;-65
2022/09/01 02:07:13;;;;;;;;;13.33;13.33;;;;;21.91;55.59;101102.75;5035478;28;51260;-65
2022/09/01 02:09:42;;;;;;;;;15.00;12.33;;;;;21.98;55.86;101121.66;5035921;28;45467;-64
2022/09/01 02:12:08;;;;;;;;;13.00;12.33;;;;;21.86;56.02;101102.53;5034947;28;46304;-65
2022/09/01 02:14:33;;;;;;;;;16.33;14.67;;;;;21.95;56.21;101128.34;5035575;28;45309;-65
2022/09/01 02:17:00;;;;;;;;;14.33;13.00;;;;;21.97;56.09;101128.13;5036126;28;45399;-65
2022/09/01 02:19:26;;;;;;;;;14.00;14.00;;;;;21.93;56.18;101130.44;5036224;28;45343;-64
2022/09/01 02:21:54;;;;;;;;;16.67;15.00;;;;;21.90;56.22;101130.84;5027635;28;47346;-64
2022/09/01 02:24:22;;;;;;;;;13.33;13.33;;;;;21.94;56.23;101129.38;5027832;28;45361;-64
2022/09/01 02:26:49;;;;;;;;;15.33;13.67;;;;;21.90;56.35;101130.84;5033896;28;45539;-66
2022/09/01 02:29:20;;;;;;;;;13.67;13.67;;;;;21.55;56.07;101062.56;5024032;28;45221;-64
2022/09/01 02:31:49;;;;;;;;;13.67;13.67;;;;;21.95;55.96;101124.81;5035488;28;45693;-65
2022/09/01 02:34:15;;;;;;;;;13.67;13.67;;;;;21.95;55.51;101125.63;5035496;28;45586;-64
2022/09/01 02:36:46;;;;;;;;;15.33;12.67;;;;;21.76;56.04;101096.69;5036543;28;45255;-66
2022/09/01 02:39:17;;;;;;;;;12.00;12.00;;;;;21.95;55.85;101131.03;5039213;28;45373;-66
2022/09/01 02:41:43;;;;;;;;;16.00;15.00;;;;;21.89;56.24;101123.78;5038919;28;46734;-65
2022/09/01 02:44:13;;;;;;;;;11.33;11.33;;;;;21.89;56.23;101123.78;5039097;28;45243;-66
2022/09/01 02:46:40;;;;;;;;;13.33;13.33;;;;;21.95;56.04;101133.75;5037799;28;45416;-64
2022/09/01 02:49:13;;;;;;;;;13.00;12.00;;;;;21.76;56.27;101102.13;5039032;28;45282;-66
2022/09/01 02:51:41;;;;;;;;;14.67;12.33;;;;;21.92;55.98;101126.06;5038607;28;47285;-65
2022/09/01 02:54:07;;;;;;;;;15.00;14.67;;;;;21.82;56.54;101115.66;5038833;28;45458;-63
2022/09/01 02:56:33;;;;;;;;;21.33;16.67;;;;;21.65;56.83;101105.47;5030089;28;46212;-64
2022/09/01 02:59:00;;;;;;;;;16.33;14.00;;;;;21.78;56.68;101122.50;5039046;28;45426;-64
2022/09/01 03:01:31;;;;;;;;;17.33;14.33;;;;;21.73;56.60;101129.59;5038551;28;45705;-65
2022/09/01 03:04:04;;;;;;;;;14.00;12.00;;;;;21.79;56.73;101134.16;5038612;28;45465;-64
2022/09/01 03:06:32;;;;;;;;;13.00;13.00;;;;;21.76;56.81;101123.75;5038735;28;45317;-64
2022/09/01 03:08:59;;;;;;;;;13.33;11.33;;;;;21.81;56.34;101115.84;5038939;28;45472;-64
2022/09/01 03:11:26;;;;;;;;;11.00;11.00;;;;;21.76;56.52;101118.34;5038552;28;46424;-64
2022/09/01 03:13:52;;;;;;;;;15.00;14.00;;;;;21.71;56.75;101107.31;5038549;28;45436;-64
2022/09/01 03:16:18;;;;;;;;;14.33;14.33;;;;;21.82;56.25;101117.50;5038539;28;45359;-64
2022/09/01 03:18:43;;;;;;;;;12.33;12.33;;;;;21.83;56.41;101122.75;5038451;28;45544;-64
2022/09/01 03:21:13;;;;;;;;;16.33;15.00;;;;;21.86;56.41;101126.91;5034819;28;46849;-65
2022/09/01 03:23:39;;;;;;;;;13.67;12.67;;;;;21.84;56.48;101131.69;5016848;28;46061;-65
2022/09/01 03:26:04;;;;;;;;;16.67;16.67;;;;;21.09;56.56;101003.03;5018527;28;45367;-65
2022/09/01 03:28:30;;;;;;;;;13.67;13.33;;;;;21.30;56.51;101032.59;5018890;28;45376;-63
2022/09/01 03:30:57;;;;;;;;;15.33;14.33;;;;;21.77;56.61;101101.06;5018284;28;46219;-65
2022/09/01 03:33:24;;;;;;;;;14.33;13.67;;;;;21.79;56.46;101104.41;5018434;28;46594;-65
2022/09/01 03:35:50;;;;;;;;;15.67;14.00;;;;;21.79;56.49;101113.34;5018489;28;45521;-65
2022/09/01 03:38:22;;;;;;;;;15.33;14.00;;;;;21.69;56.92;101112.94;5018309;28;45344;-65
2022/09/01 03:40:50;;;;;;;;;16.00;16.00;;;;;21.69;56.88;101101.28;5017919;28;45743;-65
2022/09/01 03:43:18;;;;;;;;;15.33;12.00;;;;;20.98;57.23;100998.22;5016416;28;45490;-65
2022/09/01 03:45:45;;;;;;;;;13.00;12.00;;;;;21.66;57.23;101107.13;5017629;28;45273;-65
2022/09/01 03:48:11;;;;;;;;;16.00;14.67;;;;;21.00;57.68;101015.06;5016010;28;45217;-66
2022/09/01 03:50:45;;;;;;;;;14.33;14.33;;;;;20.87;57.69;101003.22;5029070;28;45791;-65
2022/09/01 03:53:19;;;;;;;;;13.00;13.00;;;;;21.53;57.63;101111.47;5037811;28;45220;-65
2022/09/01 03:55:46;;;;;;;;;13.33;12.00;;;;;21.59;57.48;101104.41;5037660;28;45223;-65
2022/09/01 03:58:17;;;;;;;;;9.33;9.33;;;;;21.61;56.85;101104.19;5037689;28;45335;-64
2022/09/01 04:00:45;;;;;;;;;13.33;13.33;;;;;21.67;56.84;101111.50;5037371;28;45797;-65
2022/09/01 04:03:12;;;;;;;;;13.33;10.00;;;;;21.53;57.01;101087.13;5037557;28;45331;-65
2022/09/01 04:05:41;;;;;;;;;12.33;12.33;;;;;21.69;56.99;101106.69;5037788;28;45541;-65
2022/09/01 04:08:10;;;;;;;;;14.33;13.67;;;;;21.70;56.56;101105.66;5037695;28;45241;-64
2022/09/01 04:10:45;;;;;;;;;14.00;12.33;;;;;21.65;56.96;101105.47;5037124;28;46558;-64
2022/09/01 04:13:10;;;;;;;;;11.00;9.00;;;;;21.60;56.99;101099.81;5037500;28;45317;-66
2022/09/01 04:15:37;;;;;;;;;12.67;12.67;;;;;21.60;56.80;101091.69;5036273;28;45261;-65
2022/09/01 04:18:08;;;;;;;;;12.00;12.00;;;;;21.04;57.00;101000.13;5032715;28;45533;-65
2022/09/01 04:20:49;;;;;;;;;12.67;12.67;;;;;21.58;56.81;101099.19;5017590;28;47489;-65
2022/09/01 04:23:19;;;;;;;;;12.67;10.67;;;;;21.61;56.73;101098.78;5017773;28;45335;-66
2022/09/01 04:25:45;;;;;;;;;10.33;10.33;;;;;21.16;56.85;101025.47;5017831;28;45351;-64
2022/09/01 04:28:21;;;;;;;;;12.67;10.67;;;;;21.59;57.07;101103.56;5017657;28;45291;-64
2022/09/01 04:30:54;;;;;;;;;12.00;10.33;;;;;21.54;56.95;101091.50;5015577;28;47680;-65
2022/09/01 04:33:21;;;;;;;;;13.33;13.00;;;;;21.47;57.42;101098.78;5017305;28;45210;-64
2022/09/01 04:35:48;;;;;;;;;11.00;11.00;;;;;21.39;57.54;101085.44;5017349;28;45450;-65
2022/09/01 04:38:14;;;;;;;;;11.33;11.33;;;;;21.31;58.11;101093.75;5017346;28;45271;-66
2022/09/01 04:40:41;;;;;;;;;11.00;11.00;;;;;21.27;58.24;101097.94;5017032;28;46241;-65
2022/09/01 04:43:07;;;;;;;;;12.67;12.67;;;;;21.29;58.04;101100.44;5017121;28;45504;-66
2022/09/01 04:45:36;;;;;;;;;13.33;13.33;;;;;21.21;58.29;101098.69;5017228;28;45297;-66
2022/09/01 04:48:03;;;;;;;;;11.67;11.00;;;;;21.09;58.52;101081.44;5021515;28;45348;-66
2022/09/01 04:50:29;;;;;;;;;14.33;13.00;;;;;21.07;58.41;101078.09;5036825;28;46363;-65
2022/09/01 04:52:57;;;;;;;;;11.33;11.33;;;;;21.16;58.38;101093.06;5037102;28;45306;-64
2022/09/01 04:55:23;;;;;;;;;12.33;10.33;;;;;21.11;58.43;101100.97;5037198;28;45259;-64
2022/09/01 04:57:49;;;;;;;;;13.33;13.33;;;;;21.03;58.74;101090.38;5020484;28;45601;-64
2022/09/01 05:00:23;;;;;;;;;11.00;11.00;;;;;21.05;59.07;101107.22;5016513;28;45532;-65
2022/09/01 05:02:54;;;;;;;;;10.00;9.33;;;;;21.03;59.05;101090.38;5017280;28;45304;-66
2022/09/01 05:05:21;;;;;;;;;7.33;7.33;;;;;20.98;58.83;101092.81;5015298;28;45489;-65
2022/09/01 05:07:51;;;;;;;;;12.67;11.67;;;;;21.05;58.67;101093.69;5017227;28;45203;-65
2022/09/01 05:10:19;;;;;;;;;11.33;11.33;;;;;21.09;58.54;101092.25;5016699;28;45620;-66
2022/09/01 05:12:44;;;;;;;;;12.00;11.00;;;;;21.02;58.38;101089.50;5016641;28;45409;-65
2022/09/01 05:15:12;;;;;;;;;13.67;12.67;;;;;21.13;58.43;101096.19;5031719;28;45406;-65
2022/09/01 05:17:38;;;;;;;;;13.00;13.00;;;;;21.09;58.50;101100.34;5017308;28;45592;-65
2022/09/01 05:20:05;;;;;;;;;13.00;13.00;;;;;21.05;58.61;101102.63;5015255;28;48462;-65
2022/09/01 05:22:31;;;;;;;;;14.00;13.00;;;;;21.12;58.20;101102.63;5015952;28;45210;-66
2022/09/01 05:25:11;;;;;;;;;11.00;11.00;;;;;21.20;58.18;101102.44;5027766;28;45498;-65
2022/09/01 05:27:41;;;;;;;;;11.33;11.00;;;;;21.17;57.80;101102.84;5016744;28;45469;-65
2022/09/01 05:30:07;;;;;;;;;10.67;10.67;;;;;21.17;57.74;101087.47;5016894;28;46740;-66
2022/09/01 05:32:36;;;;;;;;;13.33;11.67;;;;;21.26;57.80;101093.56;5025835;28;45380;-67
2022/09/01 05:35:07;;;;;;;;;11.33;11.33;;;;;21.19;57.58;101076.44;5035131;28;45162;-64
2022/09/01 05:37:33;;;;;;;;;11.00;10.33;;;;;21.33;57.43;101097.09;5033348;28;45469;-66
2022/09/01 05:40:00;;;;;;;;;11.00;11.00;;;;;21.38;57.12;101097.31;5035665;28;45729;-67
2022/09/01 05:42:27;;;;;;;;;11.00;11.00;;;;;21.45;57.02;101089.22;5035914;28;45380;-66
2022/09/01 05:44:52;;;;;;;;;11.67;11.33;;;;;21.42;56.98;101101.25;5036054;28;45299;-66
2022/09/01 05:47:20;;;;;;;;;9.00;9.00;;;;;21.17;56.95;101070.41;5019941;28;45417;-66
2022/09/01 05:49:46;;;;;;;;;12.67;10.00;;;;;21.36;56.51;101079.63;5016357;28;45710;-65
2022/09/01 05:52:11;;;;;;;;;12.67;12.67;;;;;21.58;56.48;101105.44;5016809;28;45502;-67
2022/09/01 05:54:36;;;;;;;;;15.33;14.67;;;;;21.63;55.93;101102.97;5016343;28;45520;-66
2022/09/01 05:57:02;;;;;;;;;13.67;13.00;;;;;21.62;55.93;101101.28;5016733;28;45447;-66
2022/09/01 05:59:32;;;;;;;;;13.33;12.67;;;;;21.63;56.39;101102.97;5016226;28;46537;-67
2022/09/01 06:01:58;;;;;;;;;17.00;15.00;;;;;21.65;56.13;101091.94;5016717;28;45183;-66
2022/09/01 06:04:24;;;;;;;;;13.33;12.67;;;;;21.74;55.83;101098.78;5021047;28;45531;-63
2022/09/01 06:06:50;;;;;;;;;11.00;11.00;;;;;21.71;55.72;101088.38;5016298;28;45652;-65
2022/09/01 06:09:22;;;;;;;;;20.67;17.33;;;;;21.92;55.42;101104.41;5026631;28;46440;-75
2022/09/01 06:11:48;;;;;;;;;14.67;12.00;;;;;21.89;55.16;101099.41;5030923;28;45256;-66
2022/09/01 06:14:15;;;;;;;;;14.00;13.33;;;;;21.96;54.85;101105.63;5035710;28;45486;-65
2022/09/01 06:16:41;;;;;;;;;11.00;9.33;;;;;21.53;54.70;101021.38;5019619;28;45196;-66
2022/09/01 06:19:07;;;;;;;;;16.33;14.00;;;;;21.98;54.63;101095.44;5019313;28;47491;-66
2022/09/01 06:21:32;;;;;;;;;14.67;13.67;;;;;22.05;54.39;101093.59;5034408;28;45287;-65
2022/09/01 06:23:58;;;;;;;;;13.33;13.33;;;;;22.12;54.29;101110.66;5018053;28;45242;-66
2022/09/01 06:26:29;;;;;;;;;11.33;11.33;;;;;22.24;54.30;101110.03;5019805;28;45498;-65
2022/09/01 06:28:57;;;;;;;;;13.67;13.67;;;;;22.32;53.65;101117.91;5019315;28;46580;-66
2022/09/01 06:31:27;;;;;;;;;18.00;16.00;;;;;22.40;52.86;101106.81;5019207;28;45337;-66
2022/09/01 06:33:53;;;;;;;;;15.33;14.00;;;;;22.55;52.81;101112.00;5019440;28;45237;-66
2022/09/01 06:36:22;;;;;;;;;13.33;13.33;;;;;22.67;52.50;101111.13;5019402;28;45305;-65
2022/09/01 06:38:51;;;;;;;;;11.67;11.67;;;;;22.66;52.58;101109.47;5017578;28;46069;-66
2022/09/01 06:41:18;;;;;;;;;15.67;13.67;;;;;22.74;52.46;101106.50;5019289;28;45339;-66
2022/09/01 06:43:52;;;;;;;;;13.67;12.67;;;;;22.93;52.04;101118.34;5018669;28;45439;-65
2022/09/01 06:46:19;;;;;;;;;13.67;12.67;;;;;23.05;52.04;101122.03;5022749;28;45351;-67
2022/09/01 06:48:45;;;;;;;;;11.33;11.33;;;;;23.09;51.74;101114.31;5018841;28;46917;-66
2022/09/01 06:51:16;;;;;;;;;12.67;10.33;;;;;23.22;51.31;101111.50;5028824;28;45341;-66
2022/09/01 06:53:44;;;;;;;;;12.33;12.33;;;;;23.22;51.13;101108.78;5038982;28;45473;-65
2022/09/01 06:56:12;;;;;;;;;13.67;13.67;;;;;23.27;51.39;101119.81;5021295;28;45307;-67
2022/09/01 06:58:40;;;;;;;;;13.00;12.00;;;;;22.80;50.93;101049.75;5018725;28;45632;-66
2022/09/01 07:01:14;;;;;;;;;13.00;11.33;;;;;23.45;51.20;101118.25;5033901;28;45467;-66
2022/09/01 07:03:45;;;;;;;;;16.67;12.33;;;;;23.74;50.67;101119.50;5018915;28;45337;-66
2022/09/01 07:06:12;;;;;;;;;11.33;11.33;;;;;23.60;50.13;101088.91;5017725;28;45611;-66
2022/09/01 07:08:40;;;;;;;;;12.67;11.67;;;;;24.09;49.01;101109.78;5017240;28;47641;-65
2022/09/01 07:11:15;;;;;;;;;12.00;12.00;;;;;24.36;48.69;101101.38;5018550;28;45280;-65
2022/09/01 07:13:41;;;;;;;;;14.67;13.33;;;;;24.45;47.97;101109.03;5018749;28;45384;-65
2022/09/01 07:16:06;;;;;;;;;12.33;12.33;;;;;24.40;48.21;101114.28;5018553;28;45222;-66
2022/09/01 07:18:32;;;;;;;;;13.00;12.33;;;;;24.60;48.35;101114.06;5018363;28;46544;-67
2022/09/01 07:20:59;;;;;;;;;13.33;12.33;;;;;24.90;47.49;101100.53;5018517;28;45324;-65
2022/09/01 07:23:24;;;;;;;;;14.33;13.33;;;;;25.12;46.27;101046.47;5017276;28;45187;-66
2022/09/01 07:25:54;;;;;;;;;14.33;13.00;;;;;26.04;44.99;101112.19;5018833;28;45214;-70
2022/09/01 07:28:22;;;;;;;;;16.33;14.67;;;;;26.45;44.39;101118.59;5036584;28;48790;-66
2022/09/01 07:30:51;;;;;;;;;14.00;14.00;;;;;26.61;43.39;101112.38;5053325;28;45374;-67
2022/09/01 07:33:21;;;;;;;;;18.33;15.33;;;;;26.74;43.02;101119.47;5038507;28;45400;-66
2022/09/01 07:35:46;;;;;;;;;12.00;12.00;;;;;26.64;43.13;101111.91;5053824;28;45453;-66
2022/09/01 07:38:12;;;;;;;;;12.00;12.00;;;;;26.81;43.07;101109.22;5037983;28;46033;-66
2022/09/01 07:40:39;;;;;;;;;15.33;14.67;;;;;26.93;42.39;101121.75;5037908;28;45539;-67
2022/09/01 07:43:08;;;;;;;;;11.00;10.67;;;;;27.18;42.34;101129.63;5018457;28;45344;-66
2022/09/01 07:45:42;;;;;;;;;17.00;15.67;;;;;27.49;41.17;101117.38;5032102;28;45613;-68
2022/09/01 07:48:07;;;;;;;;;12.67;12.00;;;;;27.81;41.12;101116.81;5034117;28;46470;-68
2022/09/01 07:50:35;;;;;;;;;14.67;14.67;;;;;28.15;40.48;101110.25;5032530;28;45394;-68
2022/09/01 07:53:01;;;;;;;;;10.00;10.00;;;;;28.18;39.63;101041.38;5018061;28;45387;-68
2022/09/01 07:55:27;;;;;;;;;12.00;12.00;;;;;29.08;38.66;101126.78;5018270;28;45385;-67
2022/09/01 07:57:53;;;;;;;;;12.67;12.67;;;;;29.34;37.83;101119.66;5032780;28;46299;-66
2022/09/01 08:00:20;;;;;;;;;12.33;12.33;;;;;29.59;37.29;101127.28;5035654;28;45331;-69
2022/09/01 08:02:46;;;;;;;;;14.00;11.33;;;;;29.73;36.67;101078.38;5017645;28;45677;-67
2022/09/01 08:05:16;;;;;;;;;11.00;11.00;;;;;30.55;35.70;101119.72;5035998;28;45647;-66
2022/09/01 08:07:42;;;;;;;;;10.00;10.00;;;;;30.79;34.43;101125.63;5036812;28;46760;-65
2022/09/01 08:10:08;;;;;;;;;13.33;13.33;;;;;31.04;34.57;101124.88;5032825;28;46547;-65
2022/09/01 08:12:34;;;;;;;;;14.67;14.00;;;;;31.02;33.93;101094.09;5021648;28;45202;-66
2022/09/01 08:15:05;;;;;;;;;11.67;11.33;;;;;31.37;33.92;101128.25;5017877;28;45400;-66
2022/09/01 08:17:30;;;;;;;;;11.67;11.67;;;;;31.58;32.58;101126.34;5026170;28;46343;-65
2022/09/01 08:19:56;;;;;;;;;13.33;12.67;;;;;31.70;32.90;101113.16;5024971;28;45468;-67
2022/09/01 08:22:24;;;;;;;;;12.33;12.33;;;;;31.77;32.04;101120.03;5020035;28;45296;-67
2022/09/01 08:24:50;;;;;;;;;14.67;13.00;;;;;31.81;32.49;101125.81;5018852;28;45590;-65
2022/09/01 08:27:15;;;;;;;;;13.00;13.00;;;;;31.68;32.41;101116.19;5033473;28;46385;-67
2022/09/01 08:29:41;;;;;;;;;10.67;10.67;;;;;31.38;32.91;101127.16;5026234;28;45375;-66
2022/09/01 08:32:07;;;;;;;;;14.00;12.67;;;;;30.56;33.64;101055.53;5036916;28;45456;-66
2022/09/01 08:34:33;;;;;;;;;19.33;16.67;;;;;30.80;33.93;101127.25;5027683;28;45466;-65
2022/09/01 08:36:59;;;;;;;;;14.00;13.33;;;;;30.54;34.27;101130.97;5014101;28;47595;-64
2022/09/01 08:39:25;;;;;;;;;11.00;11.00;;;;;30.45;34.67;101127.09;5020861;28;45507;-67
2022/09/01 08:42:05;;;;;;;;;11.33;11.33;;;;;30.51;34.01;101102.16;5023240;28;45491;-66
2022/09/01 08:44:37;;;;;;;;;11.00;11.00;;;;;31.23;33.38;101125.19;5021704;28;45572;-67
2022/09/01 08:47:06;;;;;;;;;11.33;11.33;;;;;31.72;31.91;101136.56;5016033;28;45651;-68
2022/09/01 08:49:35;;;;;;;;;15.00;9.67;;;;;32.10;32.45;101128.00;5015836;28;45330;-69
2022/09/01 08:52:21;;;;;;;;;11.00;11.00;;;;;32.65;30.92;101080.22;5018605;28;45587;-69
2022/09/01 08:55:01;;;;;;;;;10.00;9.33;;;;;33.35;30.46;101113.97;5028376;28;45857;-69
2022/09/01 08:57:31;;;;;;;;;12.67;11.00;;;;;34.10;29.53;101128.22;5035095;28;47731;-68
2022/09/01 08:59:57;;;;;;;;;11.33;11.33;;;;;34.37;27.97;101115.81;5036476;28;45397;-68
2022/09/01 09:02:48;;;;;;;;;11.00;11.00;;;;;34.77;27.77;101131.06;5036971;28;45201;-70
2022/09/01 09:05:25;;;;;;;;;10.00;10.00;;;;;34.87;27.16;101130.97;5037196;28;45474;-69
2022/09/01 09:08:01;;;;;;;;;13.67;13.67;;;;;34.85;26.80;101135.16;5036677;28;47448;-67
2022/09/01 09:10:36;;;;;;;;;10.67;10.67;;;;;35.18;27.05;101139.63;5036646;28;45485;-69
2022/09/01 09:13:12;;;;;;;;;9.00;9.00;;;;;35.34;26.92;101132.78;5037275;28;45426;-69
2022/09/01 09:15:50;;;;;;;;;14.00;14.00;;;;;35.17;26.93;101134.38;5036894;28;45380;-68
2022/09/01 09:18:39;;;;;;;;;10.00;8.33;;;;;35.42;26.58;101091.72;5036839;28;45825;-77
2022/09/01 09:21:17;;;;;;;;;14.00;13.67;;;;;36.24;25.58;101103.81;5036310;28;45400;-69
2022/09/01 09:23:47;;;;;;;;;13.00;10.67;;;;;37.04;24.46;101116.25;5036672;28;45511;-68
2022/09/01 09:26:12;;;;;;;;;11.00;11.00;;;;;37.69;22.81;101082.50;5036588;28;45568;-66
2022/09/01 09:28:38;;;;;;;;;14.33;11.33;;;;;38.99;22.20;101121.03;5036176;28;46627;-67
2022/09/01 09:31:26;;;;;;;;;14.00;11.67;;;;;39.53;21.72;101131.56;5036410;28;45368;-68
2022/09/01 09:33:51;;;;;;;;;12.67;12.67;;;;;40.24;20.28;101113.47;5036690;28;45341;-66
2022/09/01 09:36:20;;;;;;;;;13.33;10.33;;;;;40.76;20.17;101104.84;5036761;28;45407;-66
2022/09/01 09:38:46;;;;;;;;;13.67;13.67;;;;;40.40;20.63;101122.94;5036342;28;46660;-67
2022/09/01 09:41:20;;;;;;;;;11.67;11.67;;;;;39.66;20.99;101126.13;5036217;28;45370;-68
2022/09/01 09:43:48;;;;;;;;;11.00;10.00;;;;;38.46;22.32;101106.22;5036692;28;45221;-67
2022/09/01 09:46:31;;;;;;;;;14.00;11.33;;;;;38.02;23.09;101118.25;5037104;28;45508;-67
2022/09/01 09:49:15;;;;;;;;;14.00;11.00;;;;;37.76;23.57;101118.13;5038189;28;47708;-66
2022/09/01 09:51:44;;;;;;;;;10.00;10.00;;;;;37.12;24.36;101090.56;5039855;28;45301;-67
2022/09/01 09:54:12;;;;;;;;;14.00;12.67;;;;;37.14;23.80;101102.16;5039702;28;45506;-67
2022/09/01 09:56:40;;;;;;;;;10.33;9.67;;;;;36.52;24.70;101074.16;5055357;28;45321;-67
2022/09/01 09:59:20;;;;;;;;;11.67;10.67;;;;;36.10;25.21;101113.22;5039320;28;47715;-67
2022/09/01 10:01:48;;;;;;;;;8.67;8.67;;;;;35.26;25.92;101116.84;5039454;28;45372;-66
2022/09/01 10:04:31;;;;;;;;;11.33;10.33;;;;;34.74;27.20;101099.31;5039799;28;45205;-66
2022/09/01 10:06:56;;;;;;;;;13.67;12.00;;;;;34.23;27.82;101099.09;5039481;28;45407;-66
2022/09/01 10:09:21;;;;;;;;;14.67;13.00;;;;;34.02;28.65;101115.06;5039113;28;46632;-66
2022/09/01 10:11:53;;;;;;;;;11.33;11.33;;;;;33.84;28.40;101104.78;5039802;28;45290;-65
2022/09/01 10:14:22;;;;;;;;;13.33;12.00;;;;;32.80;29.55;101032.50;5040032;28;45373;-66
2022/09/01 10:17:12;;;;;;;;;12.00;12.00;;;;;33.19;29.82;101112.41;5040024;28;45288;-67
2022/09/01 10:19:45;;;;;;;;;13.00;12.67;;;;;33.00;29.72;101104.00;5038113;28;45545;-67
2022/09/01 10:22:12;;;;;;;;;11.00;10.67;;;;;32.65;30.30;101080.22;5052000;28;45550;-66
2022/09/01 10:24:38;;;;;;;;;13.33;13.33;;;;;32.29;30.58;101061.09;5059900;28;45443;-66
2022/09/01 10:27:19;;;;;;;;;12.33;12.33;;;;;31.59;31.02;100991.38;5059813;28;45348;-67
2022/09/01 10:29:49;;;;;;;;;11.00;10.33;;;;;31.89;30.98;101083.19;5058939;28;46888;-67
2022/09/01 10:32:20;;;;;;;;;11.67;11.67;;;;;31.44;31.32;101071.13;5058016;28;45362;-67
2022/09/01 10:34:47;;;;;;;;;10.33;10.00;;;;;31.45;32.03;101094.75;5059700;28;45220;-68
2022/09/01 10:37:14;;;;;;;;;11.00;11.00;;;;;31.43;31.83;101091.44;5058543;28;45597;-66
2022/09/01 10:40:11;;;;;;;;;7.33;7.00;;;;;31.13;32.27;101104.03;5059236;28;45462;-71
2022/09/01 10:42:40;;;;;;;;;10.33;10.33;;;;;30.98;32.75;101087.50;5059105;28;45374;-67
2022/09/01 10:45:17;;;;;;;;;15.00;13.33;;;;;30.97;32.41;101096.84;5049696;28;45504;-68
2022/09/01 10:47:43;;;;;;;;;10.67;10.67;;;;;30.92;32.69;101091.34;5037319;28;45455;-66
2022/09/01 10:50:31;;;;;;;;;7.00;7.00;;;;;30.73;33.42;101098.44;5036843;28;45671;-68
2022/09/01 10:53:02;;;;;;;;;9.00;9.00;;;;;30.61;33.38;101089.56;5037747;28;45339;-67
2022/09/01 10:55:40;;;;;;;;;9.33;9.33;;;;;30.65;33.29;101097.03;5038065;28;45327;-68
2022/09/01 10:58:14;;;;;;;;;9.00;9.00;;;;;30.64;33.41;101100.88;5039061;28;45479;-68
2022/09/01 11:00:44;;;;;;;;;13.00;11.67;;;;;30.34;33.74;101079.59;5037287;28;46163;-67
2022/09/01 11:03:12;;;;;;;;;12.00;12.00;;;;;29.73;34.63;101084.66;5038463;28;45493;-68
2022/09/01 11:06:03;;;;;;;;;10.33;9.00;;;;;29.79;34.97;101088.25;5039174;28;45287;-68
2022/09/01 11:08:28;;;;;;;;;10.00;10.00;;;;;29.84;34.38;101091.88;5038944;28;45316;-69
2022/09/01 11:11:08;;;;;;;;;9.00;9.00;;;;;29.72;34.65;101085.75;5038723;28;46078;-67
2022/09/01 11:13:54;;;;;;;;;8.67;8.00;;;;;29.55;34.31;101079.59;5037289;28;46042;-66
2022/09/01 11:16:37;;;;;;;;;10.33;9.67;;;;;29.45;34.66;101082.25;5038574;28;45459;-66
2022/09/01 11:19:28;;;;;;;;;9.33;9.33;;;;;29.32;34.77;101075.25;5038499;28;45532;-65
2022/09/01 11:22:34;;;;;;;;;11.00;10.00;;;;;29.33;34.56;101075.00;5038171;28;46338;-68
2022/09/01 11:25:12;;;;;;;;;11.00;9.33;;;;;29.23;34.84;101063.13;5038235;28;45494;-67